THY45T FACT-LTFM
Flight info
| Callsign | THY45T |
|---|---|
| Flight time | N/A |
| Altitude | 37000 |
| Route | KODES1A KODES UZ30 IMKIV UT916 VLS UR779 MB UP312 LOSIN UM441 LOTAS UM308 GWZ UT124 ALRAP DCT KSL DCT TOMRU P751 AST W8 ALPID DCT GESON DCT LAGVI Q777 RASDA M855 TOMBI UM855 SISPI |
| Aircraft | A359/H-SDE2E3GHIJ3J4J5LM1ORWXY/LB1D1 |
Departure
| Time | 2026-05-04 07:23 |
|---|---|
| Airport | Cape Town International Airport (FACT) |
Arrival
| Time | N/A |
|---|---|
| Airport | İstanbul Airport (LTFM) |
| Time | Latitude | Longitude | Altitude | Speed | Heading |
|---|---|---|---|---|---|
| 2026-05-04 07:02 | -33.96772 | 18.59760 | 160 ft | 0 kts | 255° |
| 2026-05-04 07:08 | -33.96730 | 18.59845 | 160 ft | 3 kts | 165° |
| 2026-05-04 07:09 | -33.96709 | 18.59838 | 160 ft | 3 kts | 165° |
| 2026-05-04 07:09 | -33.96693 | 18.59833 | 160 ft | 0 kts | 165° |
| 2026-05-04 07:14 | -33.96728 | 18.59844 | 160 ft | 5 kts | 165° |
| 2026-05-04 07:14 | -33.96770 | 18.59858 | 160 ft | 7 kts | 165° |
| 2026-05-04 07:15 | -33.96818 | 18.59873 | 160 ft | 6 kts | 165° |
| 2026-05-04 07:15 | -33.96856 | 18.59886 | 160 ft | 6 kts | 165° |
| 2026-05-04 07:15 | -33.96901 | 18.59900 | 160 ft | 8 kts | 165° |
| 2026-05-04 07:15 | -33.96956 | 18.59918 | 160 ft | 9 kts | 165° |
| 2026-05-04 07:16 | -33.97027 | 18.59942 | 160 ft | 11 kts | 165° |
| 2026-05-04 07:16 | -33.97110 | 18.59960 | 160 ft | 13 kts | 170° |
| 2026-05-04 07:16 | -33.97203 | 18.59988 | 160 ft | 15 kts | 166° |
| 2026-05-04 07:16 | -33.97302 | 18.60017 | 162 ft | 14 kts | 166° |
| 2026-05-04 07:17 | -33.97396 | 18.60048 | 160 ft | 13 kts | 164° |
| 2026-05-04 07:17 | -33.97482 | 18.60078 | 160 ft | 12 kts | 161° |
| 2026-05-04 07:17 | -33.97557 | 18.60118 | 160 ft | 11 kts | 155° |
| 2026-05-04 07:17 | -33.97627 | 18.60152 | 160 ft | 11 kts | 160° |
| 2026-05-04 07:18 | -33.97697 | 18.60183 | 160 ft | 10 kts | 160° |
| 2026-05-04 07:18 | -33.97764 | 18.60211 | 160 ft | 10 kts | 160° |
| 2026-05-04 07:18 | -33.97830 | 18.60240 | 160 ft | 11 kts | 160° |
| 2026-05-04 07:18 | -33.97910 | 18.60274 | 160 ft | 14 kts | 160° |
| 2026-05-04 07:19 | -33.98006 | 18.60315 | 160 ft | 16 kts | 160° |
| 2026-05-04 07:19 | -33.98119 | 18.60364 | 160 ft | 18 kts | 160° |
| 2026-05-04 07:19 | -33.98244 | 18.60417 | 160 ft | 19 kts | 160° |
| 2026-05-04 07:19 | -33.98363 | 18.60469 | 160 ft | 18 kts | 160° |
| 2026-05-04 07:20 | -33.98476 | 18.60517 | 160 ft | 17 kts | 160° |
| 2026-05-04 07:20 | -33.98585 | 18.60563 | 160 ft | 16 kts | 160° |
| 2026-05-04 07:20 | -33.98691 | 18.60608 | 160 ft | 16 kts | 160° |
| 2026-05-04 07:20 | -33.98787 | 18.60656 | 160 ft | 12 kts | 141° |
| 2026-05-04 07:22 | -33.98652 | 18.60851 | 160 ft | 13 kts | 346° |
| 2026-05-04 07:22 | -33.98349 | 18.60755 | 160 ft | 76 kts | 345° |
| 2026-05-04 07:23 | -33.97660 | 18.60535 | 159 ft | 130 kts | 345° |
| 2026-05-04 07:23 | -33.96613 | 18.60203 | 278 ft | 168 kts | 345° |
| 2026-05-04 07:23 | -33.95540 | 18.59852 | 1071 ft | 158 kts | 341° |
| 2026-05-04 07:23 | -33.94429 | 18.59457 | 1504 ft | 171 kts | 338° |
| 2026-05-04 07:24 | -33.93250 | 18.58997 | 1758 ft | 189 kts | 338° |
| 2026-05-04 07:24 | -33.91884 | 18.58669 | 1973 ft | 215 kts | 356° |
| 2026-05-04 07:24 | -33.90326 | 18.58841 | 2347 ft | 234 kts | 4° |
| 2026-05-04 07:24 | -33.88644 | 18.59176 | 2643 ft | 255 kts | 6° |
| 2026-05-04 07:25 | -33.86866 | 18.59569 | 3196 ft | 262 kts | 6° |
| 2026-05-04 07:26 | -33.74914 | 18.62248 | 7803 ft | 261 kts | 4° |
| 2026-05-04 07:27 | -33.73136 | 18.62645 | 8526 ft | 259 kts | 4° |
| 2026-05-04 07:27 | -33.71369 | 18.63035 | 9230 ft | 258 kts | 3° |
| 2026-05-04 07:27 | -33.69630 | 18.63417 | 9938 ft | 256 kts | 2° |
| 2026-05-04 07:27 | -33.67241 | 18.63936 | 10515 ft | 270 kts | 3° |
| 2026-05-04 07:28 | -33.65992 | 18.64205 | 10681 ft | 281 kts | 3° |
| 2026-05-04 07:28 | -33.64012 | 18.64639 | 10945 ft | 296 kts | 3° |
| 2026-05-04 07:28 | -33.61931 | 18.65096 | 11197 ft | 312 kts | 4° |
| 2026-05-04 07:28 | -33.59748 | 18.65578 | 11459 ft | 326 kts | 4° |
| 2026-05-04 07:29 | -33.57490 | 18.66078 | 11818 ft | 334 kts | 4° |
| 2026-05-04 07:29 | -33.55154 | 18.66597 | 12294 ft | 339 kts | 4° |
| 2026-05-04 07:29 | -33.52844 | 18.67110 | 12766 ft | 345 kts | 4° |
| 2026-05-04 07:29 | -33.50477 | 18.67636 | 13336 ft | 347 kts | 4° |
| 2026-05-04 07:30 | -33.48097 | 18.68162 | 13919 ft | 349 kts | 4° |
| 2026-05-04 07:30 | -33.45700 | 18.68690 | 14464 ft | 350 kts | 4° |
| 2026-05-04 07:30 | -33.43301 | 18.69222 | 15049 ft | 351 kts | 3° |
| 2026-05-04 07:30 | -33.40896 | 18.69751 | 15582 ft | 352 kts | 2° |
| 2026-05-04 07:31 | -33.38489 | 18.70281 | 16169 ft | 352 kts | 2° |
| 2026-05-04 07:31 | -33.36072 | 18.70812 | 16714 ft | 354 kts | 2° |
| 2026-05-04 07:33 | -33.18800 | 18.74596 | 19961 ft | 368 kts | 1° |
| 2026-05-04 07:33 | -33.16276 | 18.75166 | 20432 ft | 372 kts | 2° |
| 2026-05-04 07:33 | -33.13750 | 18.76015 | 20916 ft | 383 kts | 10° |
| 2026-05-04 07:33 | -33.11255 | 18.77203 | 21348 ft | 389 kts | 12° |
| 2026-05-04 07:34 | -33.08769 | 18.78536 | 21747 ft | 395 kts | 14° |
| 2026-05-04 07:34 | -33.06275 | 18.79947 | 22233 ft | 398 kts | 15° |
| 2026-05-04 07:34 | -33.03769 | 18.81389 | 22698 ft | 401 kts | 15° |
| 2026-05-04 07:34 | -33.01247 | 18.82837 | 23136 ft | 403 kts | 15° |
| 2026-05-04 07:35 | -32.98709 | 18.84281 | 23523 ft | 406 kts | 15° |
| 2026-05-04 07:35 | -32.96148 | 18.85724 | 23944 ft | 408 kts | 15° |
| 2026-05-04 07:35 | -32.93574 | 18.87163 | 24354 ft | 409 kts | 14° |
| 2026-05-04 07:35 | -32.90992 | 18.88601 | 24741 ft | 410 kts | 14° |
| 2026-05-04 07:36 | -32.88403 | 18.90039 | 25129 ft | 411 kts | 14° |
| 2026-05-04 07:36 | -32.85803 | 18.91480 | 25495 ft | 413 kts | 14° |
| 2026-05-04 07:38 | -32.67263 | 19.01720 | 27944 ft | 427 kts | 14° |
| 2026-05-04 07:38 | -32.64566 | 19.03214 | 28296 ft | 428 kts | 14° |
| 2026-05-04 07:38 | -32.61858 | 19.04712 | 28631 ft | 430 kts | 14° |
| 2026-05-04 07:38 | -32.59174 | 19.06192 | 28983 ft | 432 kts | 14° |
| 2026-05-04 07:39 | -32.56408 | 19.07712 | 29337 ft | 434 kts | 14° |
| 2026-05-04 07:39 | -32.53702 | 19.09197 | 29626 ft | 435 kts | 14° |
| 2026-05-04 07:39 | -32.50949 | 19.10708 | 29869 ft | 436 kts | 14° |
| 2026-05-04 07:39 | -32.48192 | 19.12223 | 30115 ft | 438 kts | 14° |
| 2026-05-04 07:40 | -32.45415 | 19.13745 | 30295 ft | 442 kts | 14° |
| 2026-05-04 07:40 | -32.42620 | 19.15280 | 30513 ft | 444 kts | 14° |
| 2026-05-04 07:40 | -32.39816 | 19.16820 | 30729 ft | 445 kts | 14° |
| 2026-05-04 07:40 | -32.36999 | 19.18364 | 30943 ft | 446 kts | 14° |
| 2026-05-04 07:41 | -32.34176 | 19.19910 | 31158 ft | 448 kts | 14° |
| 2026-05-04 07:41 | -32.31357 | 19.21458 | 31327 ft | 448 kts | 14° |
| 2026-05-04 07:41 | -32.28521 | 19.23016 | 31476 ft | 450 kts | 14° |
| 2026-05-04 07:41 | -32.25675 | 19.24570 | 31719 ft | 451 kts | 13° |
| 2026-05-04 07:42 | -32.22834 | 19.26126 | 32056 ft | 449 kts | 13° |
| 2026-05-04 07:42 | -32.20000 | 19.27678 | 32299 ft | 449 kts | 13° |
| 2026-05-04 07:42 | -32.17164 | 19.29220 | 32434 ft | 450 kts | 13° |
| 2026-05-04 07:42 | -32.14305 | 19.30764 | 32481 ft | 454 kts | 13° |
| 2026-05-04 07:43 | -32.11439 | 19.32318 | 32747 ft | 452 kts | 13° |
| 2026-05-04 07:43 | -32.08592 | 19.33871 | 33063 ft | 450 kts | 13° |
| 2026-05-04 07:43 | -32.05750 | 19.35421 | 33301 ft | 450 kts | 13° |
| 2026-05-04 07:43 | -32.02908 | 19.36970 | 33532 ft | 450 kts | 13° |
| 2026-05-04 07:44 | -32.00071 | 19.38518 | 33740 ft | 449 kts | 13° |
| 2026-05-04 07:44 | -31.97235 | 19.40059 | 33942 ft | 449 kts | 13° |
| 2026-05-04 07:44 | -31.94396 | 19.41596 | 34085 ft | 449 kts | 13° |
| 2026-05-04 07:44 | -31.91560 | 19.43128 | 34268 ft | 449 kts | 13° |
| 2026-05-04 07:45 | -31.88721 | 19.44662 | 34380 ft | 449 kts | 13° |
| 2026-05-04 07:45 | -31.85875 | 19.46199 | 34377 ft | 451 kts | 13° |
| 2026-05-04 07:45 | -31.83021 | 19.47740 | 34507 ft | 452 kts | 13° |
| 2026-05-04 07:45 | -31.80165 | 19.49283 | 34687 ft | 451 kts | 13° |
| 2026-05-04 07:46 | -31.77315 | 19.50825 | 34848 ft | 451 kts | 13° |
| 2026-05-04 07:46 | -31.74466 | 19.52362 | 34962 ft | 451 kts | 13° |
| 2026-05-04 07:46 | -31.68736 | 19.55444 | 35054 ft | 456 kts | 13° |
| 2026-05-04 07:47 | -31.62944 | 19.58557 | 35056 ft | 459 kts | 13° |
| 2026-05-04 07:49 | -31.39772 | 19.70999 | 35064 ft | 458 kts | 13° |
| 2026-05-04 07:49 | -31.33969 | 19.74098 | 35066 ft | 458 kts | 13° |
| 2026-05-04 07:50 | -31.28174 | 19.77193 | 35071 ft | 458 kts | 13° |
| 2026-05-04 07:50 | -31.22372 | 19.80290 | 35035 ft | 460 kts | 13° |
| 2026-05-04 07:51 | -31.16558 | 19.83386 | 35080 ft | 458 kts | 13° |
| 2026-05-04 07:51 | -31.10759 | 19.86471 | 35079 ft | 458 kts | 13° |
| 2026-05-04 07:52 | -31.04961 | 19.89547 | 35083 ft | 458 kts | 13° |
| 2026-05-04 07:52 | -30.99202 | 19.92599 | 35072 ft | 458 kts | 13° |
| 2026-05-04 07:54 | -30.75989 | 20.04867 | 35083 ft | 458 kts | 12° |
| 2026-05-04 07:55 | -30.70185 | 20.07926 | 35083 ft | 458 kts | 12° |
| 2026-05-04 07:55 | -30.64374 | 20.10983 | 35085 ft | 458 kts | 12° |
| 2026-05-04 07:56 | -30.58569 | 20.14038 | 35061 ft | 457 kts | 12° |
| 2026-05-04 07:56 | -30.52761 | 20.17086 | 35095 ft | 459 kts | 12° |
| 2026-05-04 07:57 | -30.46949 | 20.20131 | 35093 ft | 459 kts | 12° |
| 2026-05-04 07:57 | -30.41124 | 20.23174 | 35092 ft | 460 kts | 12° |
| 2026-05-04 07:58 | -30.35288 | 20.26227 | 35091 ft | 460 kts | 12° |
| 2026-05-04 07:58 | -30.29446 | 20.29277 | 35094 ft | 460 kts | 12° |
| 2026-05-04 07:59 | -30.23609 | 20.32322 | 35095 ft | 460 kts | 12° |
| 2026-05-04 07:59 | -30.17810 | 20.35343 | 35085 ft | 460 kts | 12° |
| 2026-05-04 08:00 | -30.11976 | 20.38376 | 35088 ft | 460 kts | 12° |
| 2026-05-04 08:02 | -29.88562 | 20.50516 | 35075 ft | 463 kts | 12° |
| 2026-05-04 08:02 | -29.82671 | 20.53559 | 35080 ft | 465 kts | 12° |
| 2026-05-04 08:03 | -29.76757 | 20.56611 | 35073 ft | 466 kts | 12° |
| 2026-05-04 08:03 | -29.70831 | 20.59667 | 35064 ft | 466 kts | 12° |
| 2026-05-04 08:04 | -29.64913 | 20.62716 | 35074 ft | 466 kts | 12° |
| 2026-05-04 08:04 | -29.58995 | 20.65759 | 35072 ft | 466 kts | 12° |
| 2026-05-04 08:05 | -29.53069 | 20.68802 | 35064 ft | 466 kts | 12° |
| 2026-05-04 08:05 | -29.47150 | 20.71835 | 35079 ft | 465 kts | 12° |
| 2026-05-04 08:06 | -29.41231 | 20.74863 | 35065 ft | 466 kts | 12° |
| 2026-05-04 08:06 | -29.35311 | 20.77894 | 35054 ft | 467 kts | 12° |
| 2026-05-04 08:08 | -29.14499 | 20.88511 | 35868 ft | 467 kts | 12° |
| 2026-05-04 08:08 | -29.11535 | 20.90021 | 36012 ft | 466 kts | 12° |
| 2026-05-04 08:10 | -28.87823 | 21.02046 | 36653 ft | 468 kts | 12° |
| 2026-05-04 08:11 | -28.84853 | 21.03552 | 36743 ft | 467 kts | 12° |
| 2026-05-04 08:11 | -28.78908 | 21.06559 | 36933 ft | 467 kts | 12° |
| 2026-05-04 08:11 | -28.75941 | 21.08057 | 37018 ft | 467 kts | 12° |
| 2026-05-04 08:12 | -28.69998 | 21.11052 | 37069 ft | 467 kts | 12° |
| 2026-05-04 08:12 | -28.64057 | 21.14039 | 37055 ft | 468 kts | 12° |
| 2026-05-04 08:13 | -28.58073 | 21.17045 | 37086 ft | 472 kts | 13° |
| 2026-05-04 08:13 | -28.52052 | 21.20069 | 37097 ft | 473 kts | 13° |
| 2026-05-04 08:14 | -28.46034 | 21.23096 | 37101 ft | 473 kts | 13° |
| 2026-05-04 08:16 | -28.25496 | 21.41815 | 37095 ft | 508 kts | 33° |
| 2026-05-04 08:16 | -28.20401 | 21.47351 | 37066 ft | 507 kts | 33° |
| 2026-05-04 08:17 | -28.15286 | 21.52861 | 37076 ft | 507 kts | 33° |
| 2026-05-04 08:17 | -28.10166 | 21.58351 | 37074 ft | 507 kts | 32° |
| 2026-05-04 08:19 | -27.89676 | 21.80262 | 37061 ft | 507 kts | 33° |
| 2026-05-04 08:20 | -27.84528 | 21.85743 | 37082 ft | 509 kts | 33° |
| 2026-05-04 08:20 | -27.79370 | 21.91233 | 37081 ft | 510 kts | 33° |
| 2026-05-04 08:21 | -27.74207 | 21.96722 | 37090 ft | 509 kts | 33° |
| 2026-05-04 08:21 | -27.69047 | 22.02197 | 37086 ft | 510 kts | 33° |
| 2026-05-04 08:22 | -27.63874 | 22.07681 | 37113 ft | 511 kts | 33° |
| 2026-05-04 08:24 | -27.44897 | 22.25173 | 37120 ft | 489 kts | 16° |
| 2026-05-04 08:24 | -27.41888 | 22.26837 | 37118 ft | 488 kts | 15° |
| 2026-05-04 08:24 | -27.35757 | 22.30076 | 37112 ft | 487 kts | 15° |
| 2026-05-04 08:25 | -27.29591 | 22.33303 | 37115 ft | 489 kts | 15° |
| 2026-05-04 08:25 | -27.23428 | 22.36558 | 37115 ft | 490 kts | 15° |
| 2026-05-04 08:27 | -26.98788 | 22.49604 | 37113 ft | 490 kts | 15° |
| 2026-05-04 08:28 | -26.92614 | 22.52862 | 37110 ft | 490 kts | 15° |
| 2026-05-04 08:28 | -26.86450 | 22.56113 | 37110 ft | 490 kts | 15° |
| 2026-05-04 08:29 | -26.80283 | 22.59360 | 37107 ft | 490 kts | 15° |
| 2026-05-04 08:31 | -26.55611 | 22.72312 | 37094 ft | 490 kts | 16° |
| 2026-05-04 08:33 | -26.30952 | 22.85181 | 37075 ft | 490 kts | 16° |
| 2026-05-04 08:35 | -26.06214 | 22.98048 | 37071 ft | 491 kts | 16° |
| 2026-05-04 08:35 | -26.00022 | 23.01257 | 37067 ft | 491 kts | 16° |